Time;durP1;ratioP1;P1;durP2;ratioP2;P2;SDS_P1;SDS_P2;PMS_P1;PMS_P2;Temp;Humidity;BMP_temperature;BMP_pressure;BME280_temperature;BME280_humidity;BME280_pressure;Samples;Min_cycle;Max_cycle;Signal;HPM_P1;HPM_P2
2021/03/27 00:00:05;;;;;;;6.20;2.92;;;;;;;7.37;42.19;100744.81;5060673;28;20032;-69
2021/03/27 00:02:45;;;;;;;9.07;3.30;;;;;;;7.30;41.86;100749.34;5064525;28;20048;-70
2021/03/27 00:05:31;;;;;;;7.25;3.40;;;;;;;7.39;42.09;100740.44;5061723;28;20087;-68
2021/03/27 00:08:35;;;;;;;5.13;2.33;;;;;;;7.64;41.38;100743.19;5063265;28;20060;-69
2021/03/27 00:11:08;;;;;;;9.23;2.22;;;;;;;7.59;41.73;100747.69;5062812;28;20051;-67
2021/03/27 00:14:02;;;;;;;3.90;2.50;;;;;;;7.52;41.73;100746.13;5063654;28;20060;-68
2021/03/27 00:16:36;;;;;;;7.53;2.90;;;;;;;7.24;42.08;100746.91;5066767;28;20096;-74
2021/03/27 00:19:20;;;;;;;4.07;2.83;;;;;;;7.11;42.56;100740.38;5077601;28;20028;-74
2021/03/27 00:21:53;;;;;;;6.80;3.05;;;;;;;6.99;42.79;100743.28;5037246;28;20044;-74
2021/03/27 00:24:24;;;;;;;9.43;2.90;;;;;;;7.32;41.98;100744.97;5065842;28;20036;-75
2021/03/27 00:27:10;;;;;;;7.78;3.38;;;;;;;7.79;41.05;100738.44;5066638;28;20043;-74
2021/03/27 00:29:42;;;;;;;4.60;2.45;;;;;;;8.00;40.60;100740.38;5064320;28;20032;-74
2021/03/27 00:32:15;;;;;;;5.32;2.95;;;;;;;7.88;41.00;100743.38;5066074;28;20029;-74
2021/03/27 00:34:45;;;;;;;7.78;3.75;;;;;;;8.00;40.74;100742.97;5034660;28;20711;-72
2021/03/27 00:37:15;;;;;;;3.90;2.35;;;;;;;7.78;41.29;100748.00;5063150;28;20036;-70
2021/03/27 00:39:50;;;;;;;4.38;2.72;;;;;;;7.51;42.15;100736.63;5060318;28;21847;-70
2021/03/27 00:42:24;;;;;;;9.70;3.33;;;;;;;7.42;42.49;100742.09;5061742;28;20029;-71
2021/03/27 00:45:09;;;;;;;9.38;3.58;;;;;;;7.78;41.64;100737.59;5063068;28;20402;-75
2021/03/27 00:47:39;;;;;;;9.55;3.70;;;;;;;8.05;41.54;100733.28;5033335;28;20445;-76
2021/03/27 00:50:14;;;;;;;6.38;2.70;;;;;;;7.54;42.95;100744.34;5033398;28;20457;-76
2021/03/27 00:52:46;;;;;;;5.88;3.33;;;;;;;7.57;43.64;100739.06;5044155;28;20083;-76
2021/03/27 00:55:22;;;;;;;7.18;3.15;;;;;;;7.04;45.08;100744.88;5049494;28;20060;-75
2021/03/27 00:57:57;;;;;;;6.32;2.75;;;;;;;6.65;46.29;100751.97;5047114;28;20024;-75
2021/03/27 01:00:40;;;;;;;6.88;2.72;;;;;;;7.36;45.27;100742.28;5036951;28;20033;-76
2021/03/27 01:03:31;;;;;;;7.38;3.65;;;;;;;6.27;48.28;100746.81;5047119;28;20041;-74
2021/03/27 01:06:10;;;;;;;4.75;3.05;;;;;;;6.08;50.55;100755.91;5061645;28;20119;-69
2021/03/27 01:08:47;;;;;;;4.82;3.45;;;;;;;6.05;51.59;100762.03;5063285;28;20694;-70
2021/03/27 01:11:45;;;;;;;4.80;3.28;;;;;;;6.21;51.95;100766.88;5060091;28;20093;-70
2021/03/27 01:14:22;;;;;;;7.88;4.25;;;;;;;6.08;53.18;100771.47;5059238;28;20538;-70
2021/03/27 01:16:55;;;;;;;7.88;4.75;;;;;;;5.55;55.63;100770.94;5058614;28;20032;-71
2021/03/27 01:19:30;;;;;;;6.65;4.72;;;;;;;6.29;53.83;100775.38;5030353;28;20131;-72
2021/03/27 01:21:58;;;;;;;6.30;4.30;;;;;;;5.93;55.30;100775.28;5059378;28;20449;-69
2021/03/27 01:24:27;;;;;;;6.95;4.90;;;;;;;6.17;54.64;100776.47;5061054;28;20041;-70
2021/03/27 01:26:57;;;;;;;7.47;4.45;;;;;;;5.91;55.35;100769.28;5061136;28;20025;-70
2021/03/27 01:29:35;;;;;;;7.15;4.03;;;;;;;5.70;56.01;100791.31;5060096;28;20034;-71
2021/03/27 01:32:14;;;;;;;12.23;2.55;;;;;;;5.59;55.70;100793.28;5060346;28;20023;-70
2021/03/27 01:34:49;;;;;;;9.05;1.00;;;;;;;4.95;56.57;100800.56;5061965;28;20482;-69
2021/03/27 01:37:23;;;;;;;4.32;0.95;;;;;;;4.97;55.98;100804.84;5046929;28;20518;-70
2021/03/27 01:40:19;;;;;;;3.13;0.45;;;;;;;4.83;56.68;100802.47;5060439;28;20647;-69
2021/03/27 01:42:53;;;;;;;1.38;0.73;;;;;;;5.03;55.75;100814.22;5052024;28;20153;-70
2021/03/27 01:45:36;;;;;;;3.08;0.50;;;;;;;4.71;56.79;100807.84;5059996;28;20040;-76
2021/03/27 01:48:19;;;;;;;1.58;0.70;;;;;;;4.69;57.09;100814.78;5060060;28;20115;-76
2021/03/27 01:50:57;;;;;;;8.60;0.93;;;;;;;4.80;56.58;100818.03;5065925;28;20032;-76
2021/03/27 01:53:33;;;;;;;3.22;0.50;;;;;;;4.81;56.07;100824.94;5062922;28;20028;-76
2021/03/27 01:56:29;;;;;;;2.88;0.40;;;;;;;4.52;57.29;100829.72;5050068;28;20398;-75
2021/03/27 01:59:00;;;;;;;1.98;0.60;;;;;;;4.20;57.47;100820.69;5048756;28;20395;-76
2021/03/27 02:01:48;;;;;;;4.28;0.60;;;;;;;4.49;57.26;100822.84;5031247;28;20468;-76
2021/03/27 02:04:43;;;;;;;0.57;0.30;;;;;;;4.83;55.80;100823.19;5061121;28;20079;-75
2021/03/27 02:07:26;;;;;;;2.50;0.40;;;;;;;4.71;55.84;100813.00;5045411;28;20045;-75
2021/03/27 02:10:10;;;;;;;4.43;0.22;;;;;;;4.62;56.07;100815.75;5060915;28;20029;-75
2021/03/27 02:13:01;;;;;;;1.52;0.20;;;;;;;4.90;55.48;100830.84;5045441;28;20058;-74
2021/03/27 02:15:35;;;;;;;0.75;0.10;;;;;;;4.71;55.50;100833.72;5045584;28;20116;-71
2021/03/27 02:18:16;;;;;;;1.52;0.17;;;;;;;5.22;54.50;100828.56;5059715;28;20058;-71
2021/03/27 02:21:00;;;;;;;0.60;0.20;;;;;;;4.83;55.64;100849.09;5063156;28;20064;-72
2021/03/27 02:23:28;;;;;;;1.33;0.10;;;;;;;4.74;55.52;100849.19;5040253;28;20057;-71
2021/03/27 02:26:08;;;;;;;0.25;0.13;;;;;;;4.86;55.06;100848.16;5069862;28;20032;-72
2021/03/27 02:29:27;;;;;;;4.43;0.30;;;;;;;5.16;54.43;100851.97;5046177;28;20033;-71
2021/03/27 02:32:07;;;;;;;0.52;0.15;;;;;;;4.43;56.25;100844.53;5058724;28;20058;-71
2021/03/27 02:34:57;;;;;;;0.45;0.13;;;;;;;4.59;55.39;100855.50;5042294;28;20116;-70
2021/03/27 02:37:36;;;;;;;0.73;0.30;;;;;;;4.80;55.58;100853.44;5049413;28;20040;-69
2021/03/27 02:40:11;;;;;;;0.57;0.10;;;;;;;4.29;56.48;100858.53;5055695;28;20039;-69
2021/03/27 02:42:48;;;;;;;1.73;0.50;;;;;;;4.42;56.27;100860.91;5062366;28;20089;-69
2021/03/27 02:45:18;;;;;;;1.52;0.38;;;;;;;4.53;55.80;100863.34;5061070;28;20071;-70
2021/03/27 02:47:58;;;;;;;0.73;0.28;;;;;;;4.03;57.20;100864.91;5058569;28;20108;-69
2021/03/27 02:50:42;;;;;;;0.88;0.40;;;;;;;4.29;56.40;100871.47;5058640;28;20155;-70
2021/03/27 02:53:25;;;;;;;3.03;0.32;;;;;;;4.41;56.31;100866.97;5042287;28;20033;-69
2021/03/27 02:56:15;;;;;;;0.80;0.35;;;;;;;3.62;58.45;100876.59;5058089;28;20055;-69
2021/03/27 02:59:02;;;;;;;2.90;0.38;;;;;;;4.42;56.32;100873.00;5059434;28;20059;-69
2021/03/27 03:01:45;;;;;;;2.42;0.28;;;;;;;3.36;59.26;100882.06;5070254;28;20495;-72
2021/03/27 03:04:26;;;;;;;0.85;0.47;;;;;;;3.44;58.94;100887.97;5057718;28;20049;-72
2021/03/27 03:07:00;;;;;;;0.82;0.30;;;;;;;3.65;58.36;100884.34;5059951;28;20486;-72
2021/03/27 03:09:36;;;;;;;3.33;0.65;;;;;;;3.01;59.40;100893.50;5043448;28;20525;-71
2021/03/27 03:12:46;;;;;;;2.20;0.30;;;;;;;3.91;57.43;100896.94;5045425;28;20040;-72
2021/03/27 03:15:17;;;;;;;2.38;0.30;;;;;;;4.04;56.96;100901.97;4951898;28;20077;-71
2021/03/27 03:18:01;;;;;;;0.75;0.20;;;;;;;3.93;57.37;100902.09;4968119;28;20030;-72
2021/03/27 03:20:33;;;;;;;2.58;0.30;;;;;;;3.43;58.29;100909.53;5028433;28;20041;-71
2021/03/27 03:23:17;;;;;;;1.08;0.20;;;;;;;3.62;57.27;100919.69;5029972;28;20372;-73
2021/03/27 03:25:52;;;;;;;2.85;0.30;;;;;;;4.07;56.58;100917.44;5061368;28;20028;-73
2021/03/27 03:28:46;;;;;;;1.25;0.50;;;;;;;3.92;56.58;100919.34;5047283;28;20036;-72
2021/03/27 03:31:30;;;;;;;2.47;0.70;;;;;;;4.00;56.58;100917.50;5041376;28;20079;-72
2021/03/27 03:34:23;;;;;;;0.70;0.20;;;;;;;3.65;57.17;100905.00;5029413;28;20478;-72
2021/03/27 03:37:01;;;;;;;;;;;;;;;4.37;55.26;100906.72;5062545;28;20024;-74
2021/03/27 03:39:49;;;;;;;0.60;0.20;;;;;;;4.38;55.22;100912.75;5058651;28;20522;-74
2021/03/27 03:42:46;;;;;;;1.88;0.43;;;;;;;4.38;54.36;100921.34;5047692;28;20039;-73
2021/03/27 03:45:25;;;;;;;5.95;0.40;;;;;;;3.71;56.41;100929.94;5047159;28;20679;-74
2021/03/27 03:48:12;;;;;;;1.67;0.25;;;;;;;4.01;55.82;100920.97;5059474;28;20032;-71
2021/03/27 03:50:44;;;;;;;3.65;0.73;;;;;;;2.94;58.55;100920.25;5031022;28;20028;-72
2021/03/27 03:53:51;;;;;;;1.77;0.70;;;;;;;3.01;58.95;100921.91;5039718;28;20037;-72
2021/03/27 03:56:37;;;;;;;1.42;0.30;;;;;;;3.75;56.77;100926.44;5041174;28;20414;-72
2021/03/27 03:59:19;;;;;;;4.18;0.40;;;;;;;4.08;55.99;100934.69;5056612;28;20133;-72
2021/03/27 04:01:59;;;;;;;2.00;0.30;;;;;;;3.82;56.53;100928.06;5060016;28;21409;-72
2021/03/27 04:04:28;;;;;;;2.67;0.50;;;;;;;3.55;57.37;100937.84;5040738;28;20388;-72
2021/03/27 04:07:07;;;;;;;2.92;0.50;;;;;;;3.84;56.70;100925.50;5057841;28;20032;-72
2021/03/27 04:09:44;;;;;;;1.38;0.40;;;;;;;3.87;56.73;100926.28;5060873;28;20040;-71
2021/03/27 04:12:25;;;;;;;2.33;0.77;;;;;;;3.26;58.79;100932.06;5041342;28;20076;-71
2021/03/27 04:14:59;;;;;;;2.03;0.85;;;;;;;2.80;59.94;100928.13;5055541;28;20086;-69
2021/03/27 04:17:46;;;;;;;1.60;0.70;;;;;;;3.44;58.28;100926.75;5041983;28;20047;-69
2021/03/27 04:20:23;;;;;;;2.97;1.10;;;;;;;3.49;58.66;100932.75;5056714;28;20472;-70
2021/03/27 04:22:59;;;;;;;3.90;0.80;;;;;;;3.52;57.98;100930.13;5059620;28;20033;-75
2021/03/27 04:25:34;;;;;;;6.65;1.25;;;;;;;3.29;58.69;100926.88;5046779;28;20060;-75
2021/03/27 04:28:06;;;;;;;3.80;1.52;;;;;;;3.69;57.69;100936.84;5026253;28;20031;-74
2021/03/27 04:31:11;;;;;;;2.10;0.82;;;;;;;3.42;58.83;100938.81;5043998;28;20039;-75
2021/03/27 04:33:46;;;;;;;2.13;0.88;;;;;;;2.82;60.45;100957.31;4978090;28;20049;-73
2021/03/27 04:36:27;;;;;;;1.42;0.80;;;;;;;3.23;58.97;101009.59;5058360;28;20063;-74
2021/03/27 04:39:28;;;;;;;3.22;0.47;;;;;;;2.70;57.86;101009.88;5042444;28;20032;-73
2021/03/27 04:42:07;;;;;;;1.75;0.15;;;;;;;1.73;58.59;101027.38;5027507;28;20071;-73
2021/03/27 04:44:58;;;;;;;1.73;0.20;;;;;;;1.96;58.09;101013.59;5044890;28;20072;-73
2021/03/27 04:47:46;;;;;;;0.80;0.20;;;;;;;2.84;56.22;101016.69;5061828;28;20123;-74
2021/03/27 04:50:21;;;;;;;0.95;0.13;;;;;;;2.44;57.36;101025.47;5061440;28;20057;-73
2021/03/27 04:52:53;;;;;;;0.75;0.20;;;;;;;2.77;56.28;101021.03;5061074;28;20050;-74
2021/03/27 04:55:38;;;;;;;2.58;0.20;;;;;;;2.55;56.54;101015.13;5044735;28;20039;-73
2021/03/27 04:58:27;;;;;;;2.90;0.28;;;;;;;2.63;56.51;101020.25;5048716;28;20032;-73
2021/03/27 05:01:18;;;;;;;1.08;0.15;;;;;;;2.89;55.64;101015.81;5059063;28;20037;-71
2021/03/27 05:04:07;;;;;;;1.25;0.13;;;;;;;2.98;54.78;101025.25;5061021;28;20040;-72
2021/03/27 05:06:56;;;;;;;2.13;0.30;;;;;;;3.14;54.97;101041.50;5017275;28;20041;-70
2021/03/27 05:09:48;;;;;;;1.73;0.10;;;;;;;2.71;55.50;101021.94;5059077;28;20037;-69
2021/03/27 05:12:29;;;;;;;2.25;0.20;;;;;;;3.16;54.59;101025.13;5063003;28;20037;-72
2021/03/27 05:15:19;;;;;;;8.25;0.93;;;;;;;3.02;55.20;101024.31;5041971;28;20040;-69
2021/03/27 05:17:44;;;;;;;0.63;0.10;;;;;;;3.29;54.63;101025.03;5041033;28;20033;-69
2021/03/27 05:20:18;;;;;;;1.63;0.10;;;;;;;3.21;54.49;101044.91;5061524;28;20020;-70
2021/03/27 05:22:52;;;;;;;1.42;0.10;;;;;;;3.25;54.69;101024.19;5060049;28;20223;-70
2021/03/27 05:25:53;;;;;;;1.80;0.32;;;;;;;3.39;54.33;101022.38;5046997;28;20037;-70
2021/03/27 05:28:28;;;;;;;1.00;0.30;;;;;;;3.30;54.74;101035.38;5039806;28;20049;-71
2021/03/27 05:31:21;;;;;;;1.27;0.28;;;;;;;3.29;54.54;101040.53;5060677;28;20037;-70
2021/03/27 05:34:22;;;;;;;0.68;0.20;;;;;;;2.91;55.80;101044.19;5047765;28;20028;-71
2021/03/27 05:37:15;;;;;;;1.27;0.43;;;;;;;3.07;55.02;101032.94;5062830;28;20044;-70
2021/03/27 05:39:50;;;;;;;5.30;1.15;;;;;;;2.94;55.73;101044.19;5044406;28;20170;-70
2021/03/27 05:42:34;;;;;;;7.88;0.70;;;;;;;3.07;55.35;101037.22;5060943;28;20079;-70
2021/03/27 05:45:25;;;;;;;1.70;0.80;;;;;;;2.96;55.96;101040.72;5059236;28;20060;-70
2021/03/27 05:48:28;;;;;;;2.03;0.75;;;;;;;3.01;55.84;101042.44;5042372;28;20048;-70
2021/03/27 05:50:59;;;;;;;2.30;1.15;;;;;;;3.33;54.85;101040.50;5060655;28;20028;-70
2021/03/27 05:53:37;;;;;;;3.75;1.27;;;;;;;2.95;56.16;101039.00;5060829;28;20036;-71
2021/03/27 05:56:54;;;;;;;2.03;1.15;;;;;;;2.50;57.82;101048.69;5056996;28;20028;-70
2021/03/27 05:59:38;;;;;;;7.03;2.45;;;;;;;2.37;58.84;101046.16;5028730;28;20082;-70
2021/03/27 06:02:44;;;;;;;7.63;2.33;;;;;;;2.83;57.77;101052.00;5042889;28;20047;-70
2021/03/27 06:05:28;;;;;;;9.02;2.00;;;;;;;3.27;56.33;101050.00;5016762;28;20045;-70
2021/03/27 06:08:06;;;;;;;5.28;2.65;;;;;;;3.47;56.50;101065.41;5061310;28;20044;-70
2021/03/27 06:11:08;;;;;;;9.38;2.88;;;;;;;2.97;57.79;101068.25;5058560;28;20074;-70
2021/03/27 06:14:07;;;;;;;9.57;3.40;;;;;;;3.59;56.27;101061.00;5060669;28;20031;-70
2021/03/27 06:16:58;;;;;;;13.75;3.65;;;;;;;3.56;56.21;101063.63;4992986;28;20080;-70
2021/03/27 06:19:59;;;;;;;7.63;3.30;;;;;;;3.47;56.41;101061.09;5041178;28;20703;-70
2021/03/27 06:22:59;;;;;;;9.75;2.92;;;;;;;4.37;54.55;101061.13;5027008;28;20490;-70
2021/03/27 06:25:46;;;;;;;13.02;3.13;;;;;;;4.88;53.89;101057.94;5058360;28;20033;-71
2021/03/27 06:28:24;;;;;;;6.35;3.13;;;;;;;5.90;51.71;101052.91;5056437;28;20032;-70
2021/03/27 06:30:53;;;;;;;13.63;4.22;;;;;;;6.27;49.15;101054.84;5033066;28;20291;-70
2021/03/27 06:33:41;;;;;;;14.40;3.67;;;;;;;8.06;46.10;101052.56;5058104;28;20034;-70
2021/03/27 06:36:12;;;;;;;10.07;3.33;;;;;;;9.50;40.58;101049.19;5057915;28;20090;-70
2021/03/27 06:39:28;;;;;;;9.63;2.88;;;;;;;10.02;39.99;101053.56;5041856;28;20123;-70
2021/03/27 06:42:27;;;;;;;6.78;2.50;;;;;;;10.43;39.00;101058.22;5007160;28;20079;-70
2021/03/27 06:45:20;;;;;;;8.88;3.35;;;;;;;10.20;39.26;101062.50;5040171;28;20533;-71
2021/03/27 06:48:20;;;;;;;5.43;1.98;;;;;;;10.79;38.30;101057.75;5060227;28;20036;-70
2021/03/27 06:51:20;;;;;;;9.02;2.63;;;;;;;10.54;39.44;101071.75;5041170;28;20043;-70
2021/03/27 06:53:51;;;;;;;8.90;2.10;;;;;;;11.57;36.80;101064.31;5045397;28;20036;-70
2021/03/27 06:56:40;;;;;;;5.72;2.78;;;;;;;10.02;40.25;101073.59;5041422;28;20059;-70
2021/03/27 06:59:44;;;;;;;18.10;3.88;;;;;;;10.91;38.13;101070.41;5053030;28;20511;-69
2021/03/27 07:02:10;;;;;;;12.35;2.33;;;;;;;6.19;47.31;101080.94;5019722;28;20045;-69
2021/03/27 07:04:47;;;;;;;6.82;2.03;;;;;;;5.94;49.09;101093.50;5040525;28;20028;-69
2021/03/27 07:08:02;;;;;;;8.20;1.90;;;;;;;5.45;50.36;101092.53;5058307;28;20187;-69
2021/03/27 07:11:01;;;;;;;8.57;1.88;;;;;;;4.28;53.93;101098.31;5057390;28;20028;-68
2021/03/27 07:13:48;;;;;;;5.05;2.08;;;;;;;4.58;52.82;101104.03;5022063;28;20051;-68
2021/03/27 07:16:26;;;;;;;8.13;1.83;;;;;;;4.51;52.66;101103.25;5056500;28;20044;-68
2021/03/27 07:19:16;;;;;;;3.25;1.50;;;;;;;5.38;49.87;101110.81;5058272;28;20110;-68
2021/03/27 07:22:03;;;;;;;3.40;1.02;;;;;;;4.37;52.81;101124.09;5056124;28;23029;-68
2021/03/27 07:24:42;;;;;;;5.47;1.08;;;;;;;4.64;50.88;101132.44;5057605;28;20483;-69
2021/03/27 07:27:49;;;;;;;9.63;0.93;;;;;;;3.54;53.26;101129.97;5057656;28;20055;-68
2021/03/27 07:30:45;;;;;;;7.40;0.80;;;;;;;4.13;52.33;101134.69;5050907;28;20128;-69
2021/03/27 07:33:39;;;;;;;3.55;0.47;;;;;;;3.89;52.31;101141.75;5055730;28;20036;-68
2021/03/27 07:36:33;;;;;;;7.18;0.38;;;;;;;3.58;52.49;101142.00;5057170;28;20321;-67
2021/03/27 07:39:24;;;;;;;4.78;0.40;;;;;;;3.74;52.52;101152.25;5059042;28;20029;-68
2021/03/27 07:42:12;;;;;;;3.70;0.68;;;;;;;3.14;53.55;101161.16;5046202;28;20049;-68
2021/03/27 07:44:50;;;;;;;5.78;0.43;;;;;;;3.19;53.50;101167.16;5060239;28;20133;-69
2021/03/27 07:47:38;;;;;;;2.20;0.40;;;;;;;3.47;53.30;101174.81;5058329;28;20120;-68
2021/03/27 07:50:24;;;;;;;3.33;0.77;;;;;;;2.24;56.37;101174.28;5042183;28;20077;-68
2021/03/27 07:53:24;;;;;;;3.65;0.82;;;;;;;2.68;56.22;101184.53;5041613;28;20047;-68
2021/03/27 07:56:08;;;;;;;2.83;0.50;;;;;;;2.86;55.33;101187.94;5058452;28;20024;-68
2021/03/27 07:58:58;;;;;;;4.95;0.75;;;;;;;2.66;56.21;101185.41;5045350;28;20264;-68
2021/03/27 08:02:01;;;;;;;2.10;0.60;;;;;;;3.65;54.73;101199.69;5054100;28;20025;-68
2021/03/27 08:04:57;;;;;;;2.75;0.77;;;;;;;3.68;54.32;101219.50;5058294;28;20502;-68
2021/03/27 08:07:23;;;;;;;3.28;0.30;;;;;;;2.93;56.39;101223.19;5054842;28;20479;-68
2021/03/27 08:09:54;;;;;;;0.85;0.40;;;;;;;3.11;56.31;101241.25;5059485;28;20037;-68
2021/03/27 08:12:38;;;;;;;1.20;0.35;;;;;;;3.01;56.27;101242.13;5048536;28;20056;-69
2021/03/27 08:15:07;;;;;;;1.25;0.20;;;;;;;2.67;56.87;101236.19;5057523;28;20036;-68
2021/03/27 08:17:54;;;;;;;4.20;0.30;;;;;;;3.02;55.54;101237.81;5061533;28;20036;-68
2021/03/27 08:20:47;;;;;;;5.70;0.30;;;;;;;3.23;55.18;101237.75;5061537;28;20028;-67
2021/03/27 08:23:45;;;;;;;1.65;0.10;;;;;;;2.90;55.88;101243.88;5059144;28;20068;-68
2021/03/27 08:26:26;;;;;;;2.35;0.38;;;;;;;3.46;54.73;101258.38;5059535;28;20051;-68
2021/03/27 08:28:54;;;;;;;3.53;0.22;;;;;;;4.28;53.92;101256.16;5061626;28;20032;-69
2021/03/27 08:31:29;;;;;;;4.57;0.30;;;;;;;5.09;52.92;101257.16;5059700;28;20558;-68
2021/03/27 08:34:04;;;;;;;0.38;0.10;;;;;;;5.72;50.12;101263.31;5061533;28;20037;-68
2021/03/27 08:36:41;;;;;;;2.50;0.32;;;;;;;5.38;49.86;101268.94;5060652;28;20506;-68
2021/03/27 08:39:19;;;;;;;1.88;0.30;;;;;;;5.12;51.20;101271.81;5061248;28;20040;-69
2021/03/27 08:42:16;;;;;;;1.13;0.30;;;;;;;5.15;50.92;101270.06;5060318;28;20032;-70
2021/03/27 08:45:08;;;;;;;4.60;0.73;;;;;;;5.10;50.71;101271.84;5062525;28;20032;-69
2021/03/27 08:47:51;;;;;;;1.87;0.27;;;;;;;4.71;51.51;101276.50;5029045;28;20079;-69
2021/03/27 08:50:26;;;;;;;2.95;0.80;;;;;;;4.71;52.00;101298.97;5058913;28;20119;-69
2021/03/27 08:53:05;;;;;;;6.00;0.95;;;;;;;5.03;50.88;101290.91;5044467;28;20063;-70
2021/03/27 08:56:11;;;;;;;2.97;0.43;;;;;;;4.81;51.21;101296.28;5059006;28;20040;-69
2021/03/27 08:59:00;;;;;;;5.10;0.50;;;;;;;4.87;51.39;101299.66;5058239;28;20039;-69
2021/03/27 09:01:35;;;;;;;4.40;0.60;;;;;;;4.99;50.68;101305.63;5058014;28;20098;-70
2021/03/27 09:04:21;;;;;;;9.80;0.80;;;;;;;6.21;48.55;101307.56;5060688;28;20036;-70
2021/03/27 09:07:24;;;;;;;12.55;1.13;;;;;;;7.01;44.94;101313.25;5060176;28;20490;-69
2021/03/27 09:10:12;;;;;;;8.65;1.88;;;;;;;6.13;45.98;101309.44;5060715;28;20094;-68
2021/03/27 09:13:13;;;;;;;5.25;0.80;;;;;;;6.58;45.28;101320.03;5054081;28;20048;-70
2021/03/27 09:15:53;;;;;;;4.35;0.90;;;;;;;6.72;45.66;101309.41;5055867;28;20040;-68
2021/03/27 09:18:33;;;;;;;10.38;0.77;;;;;;;7.25;44.59;101318.00;5052543;28;20158;-69
2021/03/27 09:21:32;;;;;;;12.27;1.23;;;;;;;7.67;42.41;101322.44;5054693;28;20039;-69
2021/03/27 09:24:18;;;;;;;8.70;0.98;;;;;;;8.05;40.34;101319.00;5055268;28;20040;-69
2021/03/27 09:27:21;;;;;;;12.35;1.60;;;;;;;7.27;41.70;101333.56;5054477;28;20032;-69
2021/03/27 09:30:02;;;;;;;9.48;1.75;;;;;;;8.26;40.86;101329.81;5054534;28;20040;-68
2021/03/27 09:32:38;;;;;;;11.68;2.20;;;;;;;7.63;40.88;101326.81;5053698;28;20033;-69
2021/03/27 09:35:28;;;;;;;14.88;1.33;;;;;;;6.62;42.03;101339.00;5052712;28;20028;-69
2021/03/27 09:38:12;;;;;;;16.80;2.00;;;;;;;5.95;45.95;101372.84;5054065;28;20406;-68
2021/03/27 09:41:11;;;;;;;5.72;1.10;;;;;;;5.28;44.76;101378.75;5053215;28;20036;-69
2021/03/27 09:43:40;;;;;;;8.45;0.88;;;;;;;4.75;45.69;101380.94;5055418;28;20060;-69
2021/03/27 09:46:31;;;;;;;11.98;1.08;;;;;;;3.99;47.21;101385.69;5050735;28;20409;-68
2021/03/27 09:49:11;;;;;;;5.10;0.40;;;;;;;4.59;45.15;101387.94;5058183;28;20044;-68
2021/03/27 09:51:58;;;;;;;6.93;0.50;;;;;;;4.51;45.82;101400.94;5052344;28;20115;-69
2021/03/27 09:54:36;;;;;;;6.07;0.77;;;;;;;5.05;45.48;101403.16;5053672;28;20112;-69
2021/03/27 09:57:19;;;;;;;5.35;0.68;;;;;;;4.64;45.65;101406.91;5054229;28;20032;-68
2021/03/27 09:59:47;;;;;;;11.98;0.95;;;;;;;5.42;44.60;101408.00;5054139;28;20269;-68
2021/03/27 10:02:28;;;;;;;8.98;1.33;;;;;;;5.38;44.52;101414.09;5054356;28;20043;-69
2021/03/27 10:05:31;;;;;;;7.82;0.82;;;;;;;6.16;43.24;101409.78;5052832;28;20032;-69
2021/03/27 10:08:04;;;;;;;14.70;0.70;;;;;;;5.90;43.30;101421.31;5055621;28;20032;-68
2021/03/27 10:10:51;;;;;;;11.63;1.92;;;;;;;7.05;41.44;101426.69;5036036;28;20025;-69
2021/03/27 10:13:32;;;;;;;5.97;1.27;;;;;;;7.58;39.27;101424.03;5050775;28;20052;-68
2021/03/27 10:15:59;;;;;;;7.05;0.95;;;;;;;8.09;39.00;101427.38;5052601;28;20073;-70
2021/03/27 10:18:51;;;;;;;11.13;0.90;;;;;;;8.11;38.54;101427.34;5051122;28;20048;-69
2021/03/27 10:21:35;;;;;;;16.23;1.30;;;;;;;8.02;38.15;101441.38;5049989;28;20107;-69
2021/03/27 10:24:26;;;;;;;10.90;1.30;;;;;;;7.12;39.56;101434.34;5052465;28;20079;-69
2021/03/27 10:27:10;;;;;;;11.05;1.10;;;;;;;7.21;39.83;101448.94;5054560;28;20778;-68
2021/03/27 10:30:02;;;;;;;10.10;0.65;;;;;;;7.35;39.34;101455.63;5050752;28;20111;-68
2021/03/27 10:32:30;;;;;;;6.50;0.90;;;;;;;6.20;40.67;101465.97;5036587;28;20303;-69
2021/03/27 10:35:02;;;;;;;8.98;1.42;;;;;;;6.81;40.35;101470.34;5054863;28;20101;-68
2021/03/27 10:37:45;;;;;;;9.40;1.02;;;;;;;6.63;40.08;101470.63;5051021;28;20270;-68
2021/03/27 10:40:46;;;;;;;11.40;1.13;;;;;;;6.57;39.90;101468.94;5054640;28;20112;-68
2021/03/27 10:43:30;;;;;;;6.85;0.95;;;;;;;6.57;40.19;101468.09;5052373;28;20475;-68
2021/03/27 10:46:09;;;;;;;13.60;1.83;;;;;;;7.07;39.09;101476.91;5052979;28;20561;-68
2021/03/27 10:48:41;;;;;;;10.95;1.73;;;;;;;6.14;40.87;101477.25;5033691;28;20796;-68
2021/03/27 10:51:07;;;;;;;14.80;2.05;;;;;;;6.67;39.87;101490.47;5051989;28;20345;-68
2021/03/27 10:53:51;;;;;;;20.10;3.40;;;;;;;5.89;40.73;101487.06;5051003;28;20491;-68
2021/03/27 10:56:40;;;;;;;14.10;1.73;;;;;;;6.57;40.91;101492.31;5052388;28;20041;-68
2021/03/27 10:59:42;;;;;;;7.55;1.20;;;;;;;8.17;37.54;101499.28;5052988;28;20060;-69
2021/03/27 11:02:45;;;;;;;12.02;1.40;;;;;;;8.29;36.75;101493.78;5008338;28;20491;-68
2021/03/27 11:05:48;;;;;;;12.48;1.02;;;;;;;8.00;35.66;101508.25;5054717;28;20070;-68
2021/03/27 11:08:51;;;;;;;11.05;0.60;;;;;;;6.74;35.14;101515.50;5050620;28;20036;-69
2021/03/27 11:11:47;;;;;;;5.53;1.55;;;;;;;7.02;35.80;101525.47;5050170;28;20064;-68
2021/03/27 11:14:48;;;;;;;11.02;1.35;;;;;;;7.02;35.86;101520.28;5037211;28;20047;-68
2021/03/27 11:17:32;;;;;;;10.18;2.00;;;;;;;7.97;34.38;101528.28;5049065;28;20032;-69
2021/03/27 11:20:34;;;;;;;13.02;0.60;;;;;;;9.12;33.77;101534.59;5051492;28;20044;-69
2021/03/27 11:23:18;;;;;;;8.35;1.23;;;;;;;8.19;34.30;101531.34;5053305;28;20166;-68
2021/03/27 11:25:58;;;;;;;6.57;1.08;;;;;;;8.61;33.06;101544.41;5035569;28;20035;-69
2021/03/27 11:28:30;;;;;;;7.72;1.55;;;;;;;9.00;32.98;101534.00;5051757;28;20044;-69
2021/03/27 11:30:58;;;;;;;10.20;1.65;;;;;;;8.29;30.77;101540.69;5052755;28;20029;-69
2021/03/27 11:33:48;;;;;;;5.47;0.82;;;;;;;9.11;31.06;101547.66;5040520;28;20036;-69
2021/03/27 11:36:23;;;;;;;6.90;1.33;;;;;;;9.46;31.62;101564.25;5035607;28;20301;-69
2021/03/27 11:39:18;;;;;;;10.23;1.40;;;;;;;10.03;31.16;101545.38;5054844;28;20429;-69
2021/03/27 11:41:57;;;;;;;8.63;0.60;;;;;;;9.35;31.67;101559.28;5030243;28;20085;-68
2021/03/27 11:44:38;;;;;;;8.80;1.17;;;;;;;9.25;31.80;101556.00;5054983;28;20036;-69
2021/03/27 11:47:15;;;;;;;12.27;0.80;;;;;;;10.10;31.20;101573.06;5054311;28;20028;-69
2021/03/27 11:49:47;;;;;;;12.70;2.20;;;;;;;9.74;29.73;101575.69;5057448;28;20449;-70
2021/03/27 11:52:28;;;;;;;6.97;0.98;;;;;;;9.21;30.67;101584.81;5067039;28;20095;-69
2021/03/27 11:55:19;;;;;;;8.13;0.88;;;;;;;8.76;30.67;101584.06;5052961;28;20024;-69
2021/03/27 11:57:59;;;;;;;7.60;0.90;;;;;;;8.06;32.44;101599.25;5057934;28;20041;-69
2021/03/27 12:03:27;;;;;;;8.63;1.15;;;;;;;7.65;33.70;101613.84;5043728;28;20041;-69
2021/03/27 12:06:11;;;;;;;10.00;0.70;;;;;;;8.77;33.01;101610.97;5054790;28;20049;-69
2021/03/27 12:09:02;;;;;;;6.50;0.40;;;;;;;9.42;30.45;101623.44;5056407;28;20024;-69
2021/03/27 12:11:52;;;;;;;12.07;0.73;;;;;;;8.22;31.80;101622.41;5053352;28;20394;-69
2021/03/27 12:14:54;;;;;;;8.32;0.70;;;;;;;8.60;31.60;101629.50;5056297;28;20442;-68
2021/03/27 12:17:25;;;;;;;2.45;0.73;;;;;;;8.87;30.65;101638.53;5034092;28;20075;-69
2021/03/27 12:19:58;;;;;;;5.10;0.68;;;;;;;8.34;31.57;101637.84;5049924;28;20036;-69
2021/03/27 12:22:38;;;;;;;3.78;0.70;;;;;;;8.79;31.12;101642.22;5033581;28;20487;-69
2021/03/27 12:25:42;;;;;;;11.10;0.90;;;;;;;8.07;32.34;101647.88;5043184;28;20060;-69
2021/03/27 12:28:15;;;;;;;8.25;0.80;;;;;;;7.42;33.23;101660.09;5048444;28;20131;-69
2021/03/27 12:31:09;;;;;;;4.50;1.25;;;;;;;7.92;32.54;101668.94;5050654;28;20028;-69
2021/03/27 12:33:43;;;;;;;6.00;0.40;;;;;;;8.26;32.20;101660.56;5050919;28;20083;-68
2021/03/27 12:36:33;;;;;;;9.55;1.20;;;;;;;8.46;31.50;101666.25;5052177;28;20047;-68
2021/03/27 12:39:14;;;;;;;8.88;0.75;;;;;;;7.17;32.60;101670.00;5037190;28;20679;-69
2021/03/27 12:41:48;;;;;;;4.75;0.50;;;;;;;7.06;33.12;101670.13;5055554;28;20070;-69
2021/03/27 12:44:32;;;;;;;6.80;0.60;;;;;;;7.74;32.61;101678.75;5045449;28;20037;-69
2021/03/27 12:47:10;;;;;;;6.45;0.65;;;;;;;8.83;31.22;101675.13;5048582;28;20040;-69
2021/03/27 12:49:45;;;;;;;14.48;2.00;;;;;;;10.40;29.53;101680.25;5046383;28;20044;-68
2021/03/27 12:52:25;;;;;;;4.30;0.47;;;;;;;10.82;29.51;101677.41;5045951;28;20036;-69